createdAt,value
2023-04-12T00:00:58.354Z,99933.00
2023-04-12T00:03:26.946Z,99925.00
2023-04-12T00:05:55.489Z,99924.00
2023-04-12T00:08:33.290Z,99925.00
2023-04-12T00:11:02.474Z,99918.00
2023-04-12T00:13:30.996Z,99918.00
2023-04-12T00:15:59.609Z,99917.00
2023-04-12T00:18:27.614Z,99911.00
2023-04-12T00:20:56.915Z,99904.00
2023-04-12T00:23:25.192Z,99898.00
2023-04-12T00:25:53.348Z,99891.00
2023-04-12T00:28:21.805Z,99877.00
2023-04-12T00:30:51.268Z,99870.00
2023-04-12T00:33:19.525Z,99868.00
2023-04-12T00:35:47.813Z,99857.00
2023-04-12T00:38:17.638Z,99853.00
2023-04-12T00:40:45.782Z,99844.00
2023-04-12T00:43:19.000Z,99834.00
2023-04-12T00:45:48.008Z,99834.00
2023-04-12T00:48:16.484Z,99835.00
2023-04-12T00:50:48.052Z,99839.00
2023-04-12T00:53:17.958Z,99832.00
2023-04-12T00:55:46.794Z,99840.00
2023-04-12T00:58:16.290Z,99832.00
2023-04-12T01:00:50.498Z,99838.00
2023-04-12T01:03:28.117Z,99826.00
2023-04-12T01:06:14.237Z,99823.00
2023-04-12T01:09:11.409Z,99832.00
2023-04-12T01:11:48.607Z,99828.00
2023-04-12T01:14:45.070Z,99822.00
2023-04-12T01:17:21.183Z,99825.00
2023-04-12T01:19:58.069Z,99820.00
2023-04-12T01:23:15.656Z,99805.00
2023-04-12T01:26:16.150Z,99799.00
2023-04-12T01:28:45.102Z,99794.00
2023-04-12T01:31:14.333Z,99786.00
2023-04-12T01:33:44.699Z,99792.00
2023-04-12T01:36:16.364Z,99801.00
2023-04-12T01:38:45.097Z,99785.00
2023-04-12T01:41:13.524Z,99786.00
2023-04-12T01:43:45.634Z,99777.00
2023-04-12T01:46:19.256Z,99765.00
2023-04-12T01:48:51.121Z,99754.00
2023-04-12T01:51:42.473Z,99752.00
2023-04-12T01:54:13.725Z,99756.00
2023-04-12T01:56:45.339Z,99752.00
2023-04-12T01:59:17.474Z,99759.00
2023-04-12T02:01:47.535Z,99744.00
2023-04-12T02:04:17.316Z,99748.00
2023-04-12T02:06:46.562Z,99744.00
2023-04-12T02:09:15.003Z,99734.00
2023-04-12T02:11:46.616Z,99741.00
2023-04-12T02:14:15.659Z,99721.00
2023-04-12T02:16:46.154Z,99720.00
2023-04-12T02:19:14.982Z,99718.00
2023-04-12T02:21:45.816Z,99717.00
2023-04-12T02:24:14.119Z,99702.00
2023-04-12T02:26:43.561Z,99695.00
2023-04-12T02:29:12.390Z,99697.00
2023-04-12T02:31:41.703Z,99680.00
2023-04-12T02:34:13.669Z,99685.00
2023-04-12T02:36:50.713Z,99681.00
2023-04-12T02:39:19.169Z,99680.00
2023-04-12T02:41:50.068Z,99683.00
2023-04-12T02:44:18.650Z,99678.00
2023-04-12T02:47:09.244Z,99673.00
2023-04-12T02:49:41.153Z,99663.00
2023-04-12T02:52:09.678Z,99651.00
2023-04-12T02:54:45.445Z,99659.00
2023-04-12T02:57:17.685Z,99643.00
2023-04-12T02:59:49.042Z,99638.00
2023-04-12T03:02:33.226Z,99640.00
2023-04-12T03:05:05.335Z,99632.00
2023-04-12T03:07:40.460Z,99633.00
2023-04-12T03:10:11.898Z,99635.00
2023-04-12T03:12:45.118Z,99626.00
2023-04-12T03:15:18.760Z,99614.00
2023-04-12T03:17:49.553Z,99619.00
2023-04-12T03:20:20.621Z,99621.00
2023-04-12T03:23:09.935Z,99614.00
2023-04-12T03:25:43.305Z,99612.00
2023-04-12T03:28:28.153Z,99603.00
2023-04-12T03:30:57.018Z,99598.00
2023-04-12T03:33:30.481Z,99604.00
2023-04-12T03:36:03.528Z,99598.00
2023-04-12T03:38:32.614Z,99588.00
2023-04-12T03:41:01.308Z,99583.00
2023-04-12T03:43:37.742Z,99587.00
2023-04-12T03:46:16.044Z,99576.00
2023-04-12T03:48:45.925Z,99573.00
2023-04-12T03:51:15.654Z,99571.00
2023-04-12T03:53:45.855Z,99556.00
2023-04-12T03:56:16.903Z,99552.00
2023-04-12T03:58:50.008Z,99545.00
2023-04-12T04:05:30.041Z,99521.00
2023-04-12T04:08:02.821Z,99522.00
2023-04-12T04:10:38.893Z,99510.00
2023-04-12T04:13:07.092Z,99503.00
2023-04-12T04:15:35.619Z,99501.00
2023-04-12T04:18:05.090Z,99492.00
2023-04-12T04:20:33.229Z,99495.00
2023-04-12T04:23:01.183Z,99492.00
2023-04-12T04:25:33.809Z,99484.00
2023-04-12T04:28:08.184Z,99479.00
2023-04-12T04:30:39.208Z,99477.00
2023-04-12T04:33:10.810Z,99481.00
2023-04-12T04:35:41.073Z,99472.00
2023-04-12T04:38:27.719Z,99466.00
2023-04-12T04:41:04.791Z,99467.00
2023-04-12T04:43:47.197Z,99463.00
2023-04-12T04:46:22.509Z,99456.00
2023-04-12T04:48:52.073Z,99469.00
2023-04-12T04:51:20.534Z,99459.00
2023-04-12T04:53:49.324Z,99461.00
2023-04-12T04:56:19.260Z,99457.00
2023-04-12T04:58:53.992Z,99449.00
2023-04-12T05:01:28.870Z,99452.00
2023-04-12T05:04:03.196Z,99443.00
2023-04-12T05:06:31.629Z,99442.00
2023-04-12T05:09:02.051Z,99447.00
2023-04-12T05:11:33.970Z,99433.00
2023-04-12T05:14:04.437Z,99434.00
2023-04-12T05:16:32.557Z,99416.00
2023-04-12T05:19:00.731Z,99423.00
2023-04-12T05:21:29.330Z,99412.00
2023-04-12T05:23:57.768Z,99420.00
2023-04-12T05:26:26.268Z,99415.00
2023-04-12T05:28:57.871Z,99408.00
2023-04-12T05:31:26.239Z,99420.00
2023-04-12T05:33:54.987Z,99417.00
2023-04-12T05:36:28.486Z,99407.00
2023-04-12T05:38:57.140Z,99402.00
2023-04-12T05:41:25.362Z,99399.00
2023-04-12T05:43:53.452Z,99395.00
2023-04-12T05:46:21.942Z,99392.00
2023-04-12T05:48:51.708Z,99389.00
2023-04-12T05:51:27.780Z,99387.00
2023-04-12T05:54:06.448Z,99381.00
2023-04-12T05:56:36.398Z,99369.00
2023-04-12T05:59:05.473Z,99376.00
2023-04-12T06:01:33.611Z,99382.00
2023-04-12T06:04:03.007Z,99391.00
2023-04-12T06:06:31.805Z,99373.00
2023-04-12T06:09:01.343Z,99381.00
2023-04-12T06:11:30.102Z,99372.00
2023-04-12T06:13:59.682Z,99367.00
2023-04-12T06:16:28.151Z,99354.00
2023-04-12T06:18:56.574Z,99368.00
2023-04-12T06:21:25.809Z,99363.00
2023-04-12T06:23:53.604Z,99360.00
2023-04-12T06:26:21.779Z,99348.00
2023-04-12T06:28:50.224Z,99342.00
2023-04-12T06:31:18.302Z,99334.00
2023-04-12T06:33:47.964Z,99326.00
2023-04-12T06:36:16.548Z,99319.00
2023-04-12T06:38:45.179Z,99322.00
2023-04-12T06:41:13.109Z,99315.00
2023-04-12T06:43:40.996Z,99315.00
2023-04-12T06:46:09.389Z,99314.00
2023-04-12T06:48:37.595Z,99315.00
2023-04-12T06:51:05.757Z,99311.00
2023-04-12T06:53:35.335Z,99305.00
2023-04-12T06:56:07.109Z,99304.00
2023-04-12T06:58:35.208Z,99290.00
2023-04-12T07:01:07.813Z,99290.00
2023-04-12T07:03:36.244Z,99286.00
2023-04-12T07:06:17.262Z,99290.00
2023-04-12T07:08:52.972Z,99284.00
2023-04-12T07:11:24.169Z,99275.00
2023-04-12T07:13:52.483Z,99285.00
2023-04-12T07:16:20.728Z,99274.00
2023-04-12T07:18:51.425Z,99276.00
2023-04-12T07:21:19.536Z,99265.00
2023-04-12T07:23:51.373Z,99253.00
2023-04-12T07:26:19.856Z,99253.00
2023-04-12T07:28:48.029Z,99243.00
2023-04-12T07:31:16.529Z,99242.00
2023-04-12T07:33:44.852Z,99250.00
2023-04-12T07:36:13.246Z,99246.00
2023-04-12T07:38:41.584Z,99242.00
2023-04-12T07:41:09.870Z,99232.00
2023-04-12T07:43:37.804Z,99238.00
2023-04-12T07:46:08.945Z,99229.00
2023-04-12T07:48:37.298Z,99224.00
2023-04-12T07:51:06.137Z,99213.00
2023-04-12T07:53:39.003Z,99206.00
2023-04-12T07:56:07.320Z,99211.00
2023-04-12T07:58:35.686Z,99201.00
2023-04-12T08:01:03.889Z,99199.00
2023-04-12T08:03:32.079Z,99197.00
2023-04-12T08:06:00.535Z,99202.00
2023-04-12T08:08:28.792Z,99195.00
2023-04-12T08:10:56.820Z,99189.00
2023-04-12T08:13:25.012Z,99189.00
2023-04-12T08:15:53.207Z,99189.00
2023-04-12T08:18:21.386Z,99184.00
2023-04-12T08:20:49.520Z,99179.00
2023-04-12T08:23:17.683Z,99175.00
2023-04-12T08:25:46.285Z,99183.00
2023-04-12T08:28:14.386Z,99187.00
2023-04-12T08:30:43.069Z,99183.00
2023-04-12T08:33:10.938Z,99178.00
2023-04-12T08:35:40.571Z,99174.00
2023-04-12T08:38:08.722Z,99158.00
2023-04-12T08:40:36.779Z,99154.00
2023-04-12T08:43:12.522Z,99151.00
2023-04-12T08:45:41.004Z,99150.00
2023-04-12T08:48:09.706Z,99149.00
2023-04-12T08:50:37.760Z,99138.00
2023-04-12T08:53:05.728Z,99151.00
2023-04-12T08:55:33.757Z,99133.00
2023-04-12T08:58:04.140Z,99124.00
2023-04-12T09:00:32.251Z,99153.00
2023-04-12T09:03:00.669Z,99116.00
2023-04-12T09:05:32.066Z,99116.00
2023-04-12T09:08:00.371Z,99115.00
2023-04-12T09:10:38.703Z,99110.00
2023-04-12T09:13:07.492Z,99108.00
2023-04-12T09:15:36.959Z,99098.00
2023-04-12T09:18:10.330Z,99104.00
2023-04-12T09:20:39.283Z,99098.00
2023-04-12T09:23:21.803Z,99110.00
2023-04-12T09:25:53.068Z,99095.00
2023-04-12T09:28:26.558Z,99106.00
2023-04-12T09:30:55.733Z,99113.00
2023-04-12T09:33:37.349Z,99109.00
2023-04-12T09:36:14.660Z,99093.00
2023-04-12T09:39:00.392Z,99085.00
2023-04-12T09:41:30.889Z,99076.00
2023-04-12T09:44:05.601Z,99075.00
2023-04-12T09:46:34.139Z,99070.00
2023-04-12T09:49:03.634Z,99077.00
2023-04-12T09:51:34.109Z,99066.00
2023-04-12T09:54:04.699Z,99058.00
2023-04-12T09:56:34.502Z,99044.00
2023-04-12T09:59:05.563Z,99049.00
2023-04-12T10:01:40.935Z,99047.00
2023-04-12T10:04:11.429Z,99043.00
2023-04-12T10:06:41.841Z,99047.00
2023-04-12T10:09:10.116Z,99063.00
2023-04-12T10:11:42.223Z,99053.00
2023-04-12T10:14:12.153Z,99034.00
2023-04-12T10:16:42.414Z,99026.00
2023-04-12T10:19:10.487Z,99031.00
2023-04-12T10:21:41.486Z,99032.00
2023-04-12T10:24:10.885Z,99022.00
2023-04-12T10:26:44.146Z,99013.00
2023-04-12T10:29:37.432Z,99012.00
2023-04-12T10:32:23.230Z,99014.00
2023-04-12T10:35:00.950Z,99004.00
2023-04-12T10:38:03.334Z,99017.00
2023-04-12T10:40:36.015Z,99005.00
2023-04-12T10:43:22.953Z,99009.00
2023-04-12T10:45:51.628Z,98998.00
2023-04-12T10:48:38.745Z,98993.00
2023-04-12T10:51:29.417Z,98998.00
2023-04-12T10:54:17.862Z,98989.00
2023-04-12T10:56:47.269Z,98994.00
2023-04-12T10:59:27.073Z,99003.00
2023-04-12T11:02:12.185Z,98989.00
2023-04-12T11:05:10.521Z,98997.00
2023-04-12T11:07:57.368Z,98994.00
2023-04-12T11:10:42.641Z,98982.00
2023-04-12T11:13:17.657Z,98982.00
2023-04-12T11:15:45.761Z,98974.00
2023-04-12T11:18:14.467Z,98977.00
2023-04-12T11:20:43.248Z,98973.00
2023-04-12T11:23:12.645Z,98971.00
2023-04-12T11:25:41.191Z,98967.00
2023-04-12T11:28:25.220Z,98966.00
2023-04-12T11:30:57.201Z,98956.00
2023-04-12T11:33:38.149Z,98957.00
2023-04-12T11:36:07.854Z,98963.00
2023-04-12T11:38:39.406Z,98952.00
2023-04-12T11:41:08.395Z,98953.00
2023-04-12T11:43:39.075Z,98930.00
2023-04-12T11:46:08.193Z,98933.00
2023-04-12T11:48:39.054Z,98936.00
2023-04-12T11:51:25.525Z,98932.00
2023-04-12T11:53:54.613Z,98935.00
2023-04-12T11:56:23.034Z,98933.00
2023-04-12T11:58:54.325Z,98939.00
2023-04-12T12:01:23.564Z,98929.00
2023-04-12T12:03:52.103Z,98929.00
2023-04-12T12:06:21.336Z,98915.00
2023-04-12T12:08:53.408Z,98919.00
2023-04-12T12:11:24.573Z,98904.00
2023-04-12T12:14:01.913Z,98898.00
2023-04-12T12:16:31.610Z,98893.00
2023-04-12T12:19:00.348Z,98887.00
2023-04-12T12:21:28.819Z,98881.00
2023-04-12T12:23:58.212Z,98882.00
2023-04-12T12:26:28.569Z,98887.00
2023-04-12T12:28:58.070Z,98887.00
2023-04-12T12:31:28.383Z,98878.00
2023-04-12T12:33:59.021Z,98878.00
2023-04-12T12:36:34.678Z,98865.00
2023-04-12T12:39:11.773Z,98862.00
2023-04-12T12:41:42.484Z,98864.00
2023-04-12T12:44:11.610Z,98871.00
2023-04-12T12:46:53.617Z,98864.00
2023-04-12T12:49:24.058Z,98850.00
2023-04-12T12:51:52.378Z,98847.00
2023-04-12T12:54:38.835Z,98844.00
2023-04-12T12:57:08.969Z,98849.00
2023-04-12T12:59:37.115Z,98836.00
2023-04-12T13:02:06.137Z,98833.00
2023-04-12T13:04:34.722Z,98828.00
2023-04-12T13:07:08.140Z,98828.00
2023-04-12T13:09:36.757Z,98824.00
2023-04-12T13:12:04.993Z,98823.00
2023-04-12T13:14:32.922Z,98823.00
2023-04-12T13:17:00.856Z,98817.00
2023-04-12T13:19:28.759Z,98819.00
2023-04-12T13:21:57.212Z,98821.00
2023-04-12T13:24:25.350Z,98813.00
2023-04-12T13:26:53.558Z,98815.00
2023-04-12T13:29:21.760Z,98811.00
2023-04-12T13:31:50.242Z,98809.00
2023-04-12T13:34:18.299Z,98810.00
2023-04-12T13:36:47.126Z,98810.00
2023-04-12T13:39:15.574Z,98804.00
2023-04-12T13:41:44.011Z,98798.00
2023-04-12T13:44:12.214Z,98793.00
2023-04-12T13:46:40.366Z,98784.00
2023-04-12T13:49:08.210Z,98778.00
2023-04-12T13:51:36.202Z,98786.00
2023-04-12T13:54:04.391Z,98777.00
2023-04-12T13:56:32.446Z,98783.00
2023-04-12T13:59:00.985Z,98775.00
2023-04-12T14:01:29.368Z,98774.00
2023-04-12T14:03:59.448Z,98771.00
2023-04-12T14:06:27.653Z,98770.00
2023-04-12T14:08:56.082Z,98766.00
2023-04-12T14:11:25.324Z,98762.00
2023-04-12T14:13:59.715Z,98759.00
2023-04-12T14:16:28.307Z,98759.00
2023-04-12T14:18:56.617Z,98751.00
2023-04-12T14:21:29.338Z,98748.00
2023-04-12T14:24:00.917Z,98746.00
2023-04-12T14:26:28.893Z,98734.00
2023-04-12T14:28:57.166Z,98739.00
2023-04-12T14:31:25.877Z,98742.00
2023-04-12T14:33:54.180Z,98736.00
2023-04-12T14:36:22.431Z,98738.00
2023-04-12T14:38:53.725Z,98724.00
2023-04-12T14:41:21.937Z,98721.00
2023-04-12T14:43:50.636Z,98715.00
2023-04-12T14:46:19.136Z,98711.00
2023-04-12T14:48:50.212Z,98708.00
2023-04-12T14:51:18.588Z,98691.00
2023-04-12T14:53:46.872Z,98689.00
2023-04-12T14:56:23.946Z,98697.00
2023-04-12T14:58:56.357Z,98704.00
2023-04-12T15:01:25.347Z,98717.00
2023-04-12T15:03:54.171Z,98719.00
2023-04-12T15:06:24.219Z,98721.00
2023-04-12T15:08:55.235Z,98721.00
2023-04-12T15:11:27.599Z,98721.00
2023-04-12T15:13:56.335Z,98728.00
2023-04-12T15:16:24.638Z,98713.00
2023-04-12T15:18:52.788Z,98712.00
2023-04-12T15:21:21.366Z,98716.00
2023-04-12T15:23:49.450Z,98706.00
2023-04-12T15:26:17.932Z,98708.00
2023-04-12T15:28:46.656Z,98702.00
2023-04-12T15:31:15.082Z,98700.00
2023-04-12T15:33:47.483Z,98701.00
2023-04-12T15:36:16.878Z,98697.00
2023-04-12T15:38:45.099Z,98691.00
2023-04-12T15:41:12.974Z,98690.00
2023-04-12T15:43:42.450Z,98689.00
2023-04-12T15:46:10.803Z,98685.00
2023-04-12T15:48:39.212Z,98686.00
2023-04-12T15:51:08.001Z,98679.00
2023-04-12T15:53:36.340Z,98680.00
2023-04-12T15:56:04.853Z,98673.00
2023-04-12T15:58:33.002Z,98675.00
2023-04-12T16:01:01.242Z,98673.00
2023-04-12T16:03:29.369Z,98674.00
2023-04-12T16:05:57.993Z,98682.00
2023-04-12T16:08:27.816Z,98675.00
2023-04-12T16:10:55.983Z,98673.00
2023-04-12T16:13:24.519Z,98668.00
2023-04-12T16:15:52.905Z,98664.00
2023-04-12T16:18:20.856Z,98662.00
2023-04-12T16:20:48.736Z,98665.00
2023-04-12T16:23:17.086Z,98665.00
2023-04-12T16:25:45.196Z,98661.00
2023-04-12T16:28:14.713Z,98658.00
2023-04-12T16:30:42.856Z,98659.00
2023-04-12T16:33:11.369Z,98666.00
2023-04-12T16:35:41.243Z,98668.00
2023-04-12T16:38:11.189Z,98678.00
2023-04-12T16:40:39.922Z,98667.00
2023-04-12T16:43:08.814Z,98663.00
2023-04-12T16:45:37.613Z,98658.00
2023-04-12T16:48:06.249Z,98665.00
2023-04-12T16:50:34.534Z,98657.00
2023-04-12T16:53:02.714Z,98660.00
2023-04-12T16:55:33.695Z,98650.00
2023-04-12T16:58:02.261Z,98655.00
2023-04-12T17:00:32.816Z,98644.00
2023-04-12T17:03:01.138Z,98638.00
2023-04-12T17:05:29.253Z,98634.00
2023-04-12T17:07:57.785Z,98639.00
2023-04-12T17:10:27.539Z,98633.00
2023-04-12T17:13:00.178Z,98621.00
2023-04-12T17:15:29.572Z,98630.00
2023-04-12T17:18:05.911Z,98629.00
2023-04-12T17:20:39.172Z,98634.00
2023-04-12T17:23:08.142Z,98639.00
2023-04-12T17:25:36.938Z,98637.00
2023-04-12T17:28:05.346Z,98641.00
2023-04-12T17:30:33.821Z,98640.00
2023-04-12T17:33:04.510Z,98639.00
2023-04-12T17:35:32.809Z,98631.00
2023-04-12T17:38:01.056Z,98623.00
2023-04-12T17:40:29.526Z,98612.00
2023-04-12T17:42:57.606Z,98605.00
2023-04-12T17:45:26.262Z,98613.00
2023-04-12T17:47:55.058Z,98614.00
2023-04-12T17:50:27.573Z,98624.00
2023-04-12T17:52:56.037Z,98632.00
2023-04-12T17:55:24.978Z,98640.00
2023-04-12T17:57:53.426Z,98636.00
2023-04-12T18:00:23.667Z,98634.00
2023-04-12T18:02:52.368Z,98631.00
2023-04-12T18:05:20.839Z,98624.00
2023-04-12T18:07:50.254Z,98637.00
2023-04-12T18:10:21.329Z,98631.00
2023-04-12T18:12:52.178Z,98629.00
2023-04-12T18:15:20.566Z,98648.00
2023-04-12T18:17:48.838Z,98648.00
2023-04-12T18:20:17.598Z,98640.00
2023-04-12T18:22:46.199Z,98665.00
2023-04-12T18:25:14.475Z,98679.00
2023-04-12T18:27:42.734Z,98691.00
2023-04-12T18:30:10.928Z,98710.00
2023-04-12T18:32:39.141Z,98693.00
2023-04-12T18:35:08.187Z,98682.00
2023-04-12T18:37:37.515Z,98668.00
2023-04-12T18:40:09.954Z,98695.00
2023-04-12T18:42:38.137Z,98703.00
2023-04-12T18:45:06.594Z,98718.00
2023-04-12T18:47:34.629Z,98724.00
2023-04-12T18:50:02.866Z,98736.00
2023-04-12T18:52:31.156Z,98728.00
2023-04-12T18:55:02.366Z,98743.00
2023-04-12T18:57:31.087Z,98726.00
2023-04-12T18:59:59.277Z,98734.00
2023-04-12T19:02:28.799Z,98742.00
2023-04-12T19:04:57.092Z,98725.00
2023-04-12T19:07:25.440Z,98734.00
2023-04-12T19:09:54.631Z,98741.00
2023-04-12T19:12:22.816Z,98742.00
2023-04-12T19:14:51.402Z,98746.00
2023-04-12T19:17:28.021Z,98760.00
2023-04-12T19:19:56.894Z,98757.00
2023-04-12T19:22:28.266Z,98759.00
2023-04-12T19:24:56.392Z,98750.00
2023-04-12T19:27:24.461Z,98756.00
2023-04-12T19:29:56.444Z,98762.00
2023-04-12T19:32:24.653Z,98754.00
2023-04-12T19:34:52.773Z,98757.00
2023-04-12T19:37:21.709Z,98753.00
2023-04-12T19:39:52.747Z,98759.00
2023-04-12T19:42:21.615Z,98767.00
2023-04-12T19:44:50.887Z,98766.00
2023-04-12T19:47:19.299Z,98770.00
2023-04-12T19:49:47.886Z,98778.00
2023-04-12T19:52:16.393Z,98771.00
2023-04-12T19:54:47.529Z,98784.00
2023-04-12T19:57:15.594Z,98787.00
2023-04-12T19:59:43.609Z,98785.00
2023-04-12T20:02:11.838Z,98799.00
2023-04-12T20:04:40.484Z,98796.00
2023-04-12T20:07:08.964Z,98799.00
2023-04-12T20:09:37.487Z,98796.00
2023-04-12T20:12:06.974Z,98817.00
2023-04-12T20:14:37.335Z,98823.00
2023-04-12T20:17:06.378Z,98826.00
2023-04-12T20:19:34.637Z,98827.00
2023-04-12T20:22:03.646Z,98814.00
2023-04-12T20:24:34.735Z,98820.00
2023-04-12T20:27:04.002Z,98819.00
2023-04-12T20:29:34.956Z,98823.00
2023-04-12T20:32:07.051Z,98830.00
2023-04-12T20:34:35.164Z,98826.00
2023-04-12T20:37:05.732Z,98840.00
2023-04-12T20:39:35.809Z,98844.00
2023-04-12T20:42:03.903Z,98848.00
2023-04-12T20:44:32.085Z,98850.00
2023-04-12T20:47:00.342Z,98864.00
2023-04-12T20:49:30.388Z,98863.00
2023-04-12T20:51:59.517Z,98879.00
2023-04-12T20:54:30.419Z,98886.00
2023-04-12T20:57:04.377Z,98885.00
2023-04-12T20:59:36.184Z,98879.00
2023-04-12T21:02:04.774Z,98866.00
2023-04-12T21:04:36.460Z,98865.00
2023-04-12T21:07:05.318Z,98853.00
2023-04-12T21:09:34.330Z,98859.00
2023-04-12T21:12:06.399Z,98851.00
2023-04-12T21:14:35.319Z,98854.00
2023-04-12T21:17:07.462Z,98867.00
2023-04-12T21:19:42.115Z,98872.00
2023-04-12T21:22:10.531Z,98872.00
2023-04-12T21:24:38.705Z,98857.00
2023-04-12T21:27:07.976Z,98869.00
2023-04-12T21:29:41.621Z,98870.00
2023-04-12T21:32:10.001Z,98875.00
2023-04-12T21:34:38.829Z,98874.00
2023-04-12T21:37:06.906Z,98871.00
2023-04-12T21:39:35.072Z,98876.00
2023-04-12T21:42:03.730Z,98861.00
2023-04-12T21:44:32.036Z,98860.00
2023-04-12T21:47:00.470Z,98874.00
2023-04-12T21:49:30.362Z,98854.00
2023-04-12T21:51:59.470Z,98867.00
2023-04-12T21:54:29.194Z,98870.00
2023-04-12T21:56:57.958Z,98865.00
2023-04-12T21:59:27.121Z,98858.00
2023-04-12T22:01:55.644Z,98860.00
2023-04-12T22:04:23.760Z,98859.00
2023-04-12T22:06:53.303Z,98850.00
2023-04-12T22:09:26.014Z,98845.00
2023-04-12T22:11:57.222Z,98846.00
2023-04-12T22:14:27.246Z,98839.00
2023-04-12T22:16:55.874Z,98850.00
2023-04-12T22:19:23.991Z,98853.00
2023-04-12T22:21:52.642Z,98859.00
2023-04-12T22:24:21.621Z,98849.00
2023-04-12T22:26:49.847Z,98842.00
2023-04-12T22:29:17.857Z,98842.00
2023-04-12T22:31:51.607Z,98845.00
2023-04-12T22:34:20.061Z,98835.00
2023-04-12T22:36:52.474Z,98830.00
2023-04-12T22:39:23.151Z,98833.00
2023-04-12T22:41:53.519Z,98842.00
2023-04-12T22:44:26.075Z,98848.00
2023-04-12T22:46:55.085Z,98865.00
2023-04-12T22:49:31.333Z,98876.00
2023-04-12T22:51:59.716Z,98880.00
2023-04-12T22:54:27.669Z,98870.00
2023-04-12T22:56:55.740Z,98878.00
2023-04-12T22:59:26.729Z,98868.00
2023-04-12T23:01:55.107Z,98867.00
2023-04-12T23:04:23.345Z,98846.00
2023-04-12T23:06:56.988Z,98846.00
2023-04-12T23:09:28.872Z,98849.00
2023-04-12T23:11:59.752Z,98849.00
2023-04-12T23:14:27.778Z,98845.00
2023-04-12T23:16:57.384Z,98846.00
2023-04-12T23:19:28.916Z,98831.00
2023-04-12T23:21:57.759Z,98838.00
2023-04-12T23:24:26.239Z,98838.00
2023-04-12T23:26:57.962Z,98837.00
2023-04-12T23:29:26.373Z,98840.00
2023-04-12T23:31:56.069Z,98845.00
2023-04-12T23:34:24.069Z,98855.00
2023-04-12T23:36:52.531Z,98857.00
2023-04-12T23:39:23.089Z,98859.00
2023-04-12T23:41:52.066Z,98864.00
2023-04-12T23:44:20.367Z,98866.00
2023-04-12T23:46:48.665Z,98871.00
2023-04-12T23:49:16.922Z,98873.00
2023-04-12T23:51:45.206Z,98877.00
2023-04-12T23:54:13.381Z,98887.00
2023-04-12T23:56:41.642Z,98879.00
2023-04-12T23:59:09.976Z,98888.00
